Time;durP1;ratioP1;P1;durP2;ratioP2;P2;SDS_P1;SDS_P2;PMS_P1;PMS_P2;Temp;Humidity;BMP_temperature;BMP_pressure;BME280_temperature;BME280_humidity;BME280_pressure;Samples;Min_cycle;Max_cycle;Signal;HPM_P1;HPM_P2
2023/06/09 00:01:11;;;;;;;10.00;7.80;;;;;;;19.69;100.00;99456.98;106290;1252;75064;-71
2023/06/09 00:03:39;;;;;;;9.40;8.40;;;;;;;19.70;100.00;99454.16;106268;1248;69133;-71
2023/06/09 00:06:08;;;;;;;9.80;8.80;;;;;;;19.69;100.00;99452.27;106300;1248;72453;-71
2023/06/09 00:08:36;;;;;;;9.10;8.20;;;;;;;19.60;100.00;99450.46;106309;1248;61712;-70
2023/06/09 00:11:03;;;;;;;8.90;8.00;;;;;;;19.72;100.00;99450.75;105993;1256;61591;-71
2023/06/09 00:13:30;;;;;;;8.90;8.00;;;;;;;19.82;100.00;99452.09;106212;1253;74946;-72
2023/06/09 00:15:57;;;;;;;8.70;7.80;;;;;;;19.87;100.00;99451.95;106040;1251;69364;-74
2023/06/09 00:18:25;;;;;;;11.80;8.20;;;;;;;19.81;100.00;99449.40;106161;1250;72848;-71
2023/06/09 00:20:52;;;;;;;9.20;8.20;;;;;;;19.93;100.00;99448.94;106275;1253;62343;-71
2023/06/09 00:23:19;;;;;;;9.00;8.00;;;;;;;19.85;100.00;99449.11;106119;1256;61346;-71
2023/06/09 00:25:46;;;;;;;15.20;8.90;;;;;;;19.60;100.00;99450.32;106225;1253;74500;-70
2023/06/09 00:28:13;;;;;;;9.70;8.00;;;;;;;19.48;100.00;99447.26;106178;1253;68488;-71
2023/06/09 00:30:39;;;;;;;9.40;8.10;;;;;;;19.63;100.00;99448.05;106272;1253;73271;-73
2023/06/09 00:33:07;;;;;;;9.00;7.80;;;;;;;19.72;100.00;99446.27;106278;1251;61768;-71
2023/06/09 00:35:34;;;;;;;13.90;8.70;;;;;;;19.69;100.00;99447.02;106185;1251;61428;-73
2023/06/09 00:38:01;;;;;;;12.90;8.50;;;;;;;19.83;100.00;99445.38;106152;1253;74907;-75
2023/06/09 00:40:28;;;;;;;12.00;9.10;;;;;;;19.91;100.00;99446.27;106218;1251;69148;-70
2023/06/09 00:42:56;;;;;;;11.70;9.00;;;;;;;19.95;100.00;99440.95;106156;1250;72360;-71
2023/06/09 00:45:23;;;;;;;9.10;8.20;;;;;;;19.77;100.00;99437.88;106242;1251;61740;-71
2023/06/09 00:47:51;;;;;;;10.80;8.60;;;;;;;19.54;100.00;99437.29;106275;1251;61217;-70
2023/06/09 00:50:20;;;;;;;11.30;8.90;;;;;;;19.42;100.00;99430.40;106054;1256;74748;-71
2023/06/09 00:52:46;;;;;;;9.00;8.10;;;;;;;19.56;100.00;99429.02;106076;1256;67683;-72
2023/06/09 00:55:13;;;;;;;9.00;8.10;;;;;;;19.23;100.00;99424.11;106246;1249;71467;-69
2023/06/09 00:57:44;;;;;;;8.80;7.90;;;;;;;19.32;100.00;99425.83;105683;1249;61744;-73
2023/06/09 01:00:16;;;;;;;9.50;7.90;;;;;;;19.43;100.00;99425.12;106103;1251;61343;-74
2023/06/09 01:02:43;;;;;;;9.80;8.40;;;;;;;19.47;100.00;99424.75;106216;1253;74388;-72
2023/06/09 01:05:12;;;;;;;8.70;7.80;;;;;;;19.59;100.00;99424.69;106225;1252;67406;-71
2023/06/09 01:07:54;;;;;;;9.10;8.20;;;;;;;19.67;100.00;99419.11;105985;1251;72938;-70
2023/06/09 01:10:30;;;;;;;8.00;7.30;;;;;;;19.19;100.00;99421.08;106144;1250;62033;-71
2023/06/09 01:13:12;;;;;;;12.90;8.30;;;;;;;19.17;100.00;99419.33;106112;1251;61352;-70
2023/06/09 01:15:47;;;;;;;8.50;7.60;;;;;;;19.17;100.00;99416.71;106253;1252;74627;-69
2023/06/09 01:18:14;;;;;;;10.40;8.90;;;;;;;18.86;100.00;99417.54;106283;1251;68680;-70
2023/06/09 01:20:45;;;;;;;11.00;8.70;;;;;;;18.91;100.00;99419.85;105953;1251;71390;-69
2023/06/09 01:23:16;;;;;;;12.70;9.10;;;;;;;18.97;100.00;99422.04;105968;1254;61931;-71
2023/06/09 01:25:43;;;;;;;13.30;8.80;;;;;;;19.08;100.00;99424.58;106118;1249;61222;-70
2023/06/09 01:28:12;;;;;;;9.30;8.30;;;;;;;18.98;100.00;99422.90;106142;1256;74321;-71
2023/06/09 01:30:40;;;;;;;9.60;8.60;;;;;;;19.10;100.00;99419.78;106287;1251;67581;-71
2023/06/09 01:33:11;;;;;;;16.80;9.00;;;;;;;19.20;100.00;99419.73;106036;1250;72394;-71
2023/06/09 01:35:39;;;;;;;9.40;8.40;;;;;;;18.88;100.00;99417.98;106139;1251;61990;-71
2023/06/09 01:38:06;;;;;;;11.00;8.30;;;;;;;19.07;100.00;99414.98;106297;1251;61224;-71
2023/06/09 01:40:35;;;;;;;8.50;7.70;;;;;;;19.16;100.00;99415.64;106141;1251;74578;-72
2023/06/09 01:43:03;;;;;;;11.30;8.20;;;;;;;18.85;100.00;99410.87;106268;1253;67254;-71
2023/06/09 01:45:30;;;;;;;10.40;8.00;;;;;;;18.99;100.00;99411.32;106164;1251;72602;-71
2023/06/09 01:47:57;;;;;;;7.90;7.20;;;;;;;18.98;100.00;99409.84;106142;1251;61826;-71
2023/06/09 01:50:51;;;;;;;8.80;8.00;;;;;;;18.96;100.00;99410.31;105486;1260;61340;-71
2023/06/09 01:53:21;;;;;;;8.20;7.40;;;;;;;19.07;100.00;99410.73;106096;1253;75152;-71
2023/06/09 01:55:51;;;;;;;9.10;8.20;;;;;;;18.93;100.00;99408.70;105923;1250;68565;-70
2023/06/09 01:58:22;;;;;;;10.10;8.30;;;;;;;19.03;100.00;99411.11;106055;1251;71259;-71
2023/06/09 02:00:49;;;;;;;9.20;8.00;;;;;;;19.05;100.00;99413.94;106078;1256;61317;-70
2023/06/09 02:03:17;;;;;;;9.90;8.30;;;;;;;19.05;100.00;99413.55;106331;1253;61253;-71
2023/06/09 02:05:44;;;;;;;11.80;8.60;;;;;;;19.02;100.00;99413.52;106273;1253;74243;-71
2023/06/09 02:08:11;;;;;;;8.90;7.90;;;;;;;19.30;100.00;99412.52;105955;1251;68384;-73
2023/06/09 02:10:39;;;;;;;9.50;7.70;;;;;;;19.38;100.00;99413.04;105781;1253;73106;-71
2023/06/09 02:13:19;;;;;;;8.60;7.80;;;;;;;19.45;100.00;99414.79;106201;1248;61765;-73
2023/06/09 02:15:46;;;;;;;11.00;8.50;;;;;;;19.30;100.00;99413.30;106260;1248;62410;-73
2023/06/09 02:18:15;;;;;;;8.70;7.30;;;;;;;19.22;100.00;99412.44;106307;1248;72632;-71
2023/06/09 02:20:44;;;;;;;9.20;7.80;;;;;;;19.14;100.00;99413.80;105948;1248;68347;-70
2023/06/09 02:23:14;;;;;;;8.10;7.40;;;;;;;19.25;100.00;99415.73;106363;1248;73111;-71
2023/06/09 02:25:42;;;;;;;9.80;8.00;;;;;;;19.17;100.00;99414.85;106260;1248;61727;-71
2023/06/09 02:28:09;;;;;;;10.00;9.00;;;;;;;19.14;100.00;99415.70;106222;1248;61323;-70
2023/06/09 02:30:35;;;;;;;10.40;9.30;;;;;;;19.02;100.00;99417.51;105970;1254;75113;-71
2023/06/09 02:33:02;;;;;;;11.20;10.10;;;;;;;19.08;100.00;99415.41;106249;1253;69049;-71
2023/06/09 02:35:29;;;;;;;13.90;10.00;;;;;;;19.29;100.00;99419.48;106288;1248;73116;-71
2023/06/09 02:38:00;;;;;;;13.30;9.80;;;;;;;19.44;100.00;99422.27;106257;1248;61326;-72
2023/06/09 02:40:27;;;;;;;15.40;9.90;;;;;;;19.32;100.00;99426.91;106008;1248;62038;-72
2023/06/09 02:42:54;;;;;;;15.60;9.80;;;;;;;19.21;100.00;99421.01;106129;1247;75047;-71
2023/06/09 02:45:21;;;;;;;12.00;9.40;;;;;;;18.92;100.00;99421.46;105998;1249;69205;-71
2023/06/09 02:47:50;;;;;;;9.10;8.20;;;;;;;18.83;100.00;99425.89;105836;1254;72951;-71
2023/06/09 02:50:18;;;;;;;11.30;8.80;;;;;;;19.00;100.00;99425.17;106303;1248;61758;-71
2023/06/09 02:52:44;;;;;;;9.70;8.60;;;;;;;19.04;100.00;99429.64;106308;1248;61317;-70
2023/06/09 02:55:11;;;;;;;9.50;8.50;;;;;;;19.04;100.00;99429.11;106089;1254;73337;-72
2023/06/09 02:57:40;;;;;;;13.70;9.60;;;;;;;19.15;100.00;99427.77;106290;1248;68533;-71
2023/06/09 03:00:09;;;;;;;9.50;8.50;;;;;;;19.17;100.00;99433.64;106161;1248;72474;-73
2023/06/09 03:02:38;;;;;;;11.90;9.40;;;;;;;19.08;100.00;99432.45;106325;1249;61706;-74
2023/06/09 03:05:05;;;;;;;10.30;9.20;;;;;;;19.22;100.00;99438.46;106193;1248;61346;-72
2023/06/09 03:07:33;;;;;;;9.60;8.50;;;;;;;19.20;100.00;99435.29;106311;1248;72670;-76
2023/06/09 03:10:01;;;;;;;11.60;8.60;;;;;;;19.16;100.00;99435.55;106308;1248;68447;-74
2023/06/09 03:12:28;;;;;;;11.10;8.60;;;;;;;19.30;100.00;99438.06;106197;1249;72540;-70
2023/06/09 03:14:55;;;;;;;13.50;8.70;;;;;;;19.38;100.00;99434.52;106061;1251;62364;-73
2023/06/09 03:17:22;;;;;;;11.70;8.30;;;;;;;19.43;100.00;99434.77;106090;1251;61378;-71
2023/06/09 03:19:51;;;;;;;12.20;8.60;;;;;;;19.44;100.00;99433.86;105981;1256;74611;-72
2023/06/09 03:22:18;;;;;;;10.30;8.30;;;;;;;19.19;100.00;99438.36;106058;1251;68989;-72
2023/06/09 03:24:45;;;;;;;16.20;9.10;;;;;;;19.21;100.00;99440.05;106260;1251;72474;-73
2023/06/09 03:27:12;;;;;;;9.50;8.20;;;;;;;19.29;100.00;99441.30;106003;1251;61788;-70
2023/06/09 03:29:39;;;;;;;9.40;8.10;;;;;;;19.36;100.00;99441.55;106008;1251;61260;-70
2023/06/09 03:32:07;;;;;;;10.50;9.10;;;;;;;19.40;100.00;99444.55;106206;1253;74559;-72
2023/06/09 03:34:33;;;;;;;9.10;8.30;;;;;;;19.56;100.00;99442.67;106251;1253;68352;-71
2023/06/09 03:37:04;;;;;;;10.30;8.60;;;;;;;19.57;100.00;99446.46;106181;1253;72470;-71
2023/06/09 03:39:30;;;;;;;12.00;10.00;;;;;;;19.51;100.00;99442.35;106028;1252;62831;-71
2023/06/09 03:41:57;;;;;;;9.80;8.70;;;;;;;19.51;100.00;99445.11;106110;1254;61200;-70
2023/06/09 03:44:26;;;;;;;12.30;8.30;;;;;;;19.63;100.00;99444.98;106095;1256;74348;-71
2023/06/09 03:46:53;;;;;;;9.00;8.20;;;;;;;19.78;100.00;99444.64;105992;1251;68627;-74
2023/06/09 03:49:21;;;;;;;9.20;8.30;;;;;;;19.88;100.00;99446.46;106193;1251;71492;-72
2023/06/09 03:51:48;;;;;;;11.60;9.10;;;;;;;19.84;100.00;99448.86;106217;1251;61212;-71
2023/06/09 03:54:15;;;;;;;10.60;7.10;;;;;;;19.92;100.00;99451.23;106221;1251;61359;-72
2023/06/09 03:56:42;;;;;;;13.00;8.70;;;;;;;19.97;100.00;99449.13;106057;1250;74986;-72
2023/06/09 03:59:09;;;;;;;16.10;8.40;;;;;;;19.97;100.00;99454.25;106055;1254;68592;-71
2023/06/09 04:01:40;;;;;;;23.40;8.50;;;;;;;19.70;100.00;99456.05;106306;1253;72707;-71
2023/06/09 04:04:08;;;;;;;9.50;7.80;;;;;;;19.78;100.00;99453.72;106113;1248;61997;-72
2023/06/09 04:06:35;;;;;;;15.60;9.40;;;;;;;19.66;100.00;99449.31;106064;1254;62355;-72
2023/06/09 04:09:03;;;;;;;9.50;8.50;;;;;;;19.72;100.00;99453.84;106140;1254;74680;-75
2023/06/09 04:11:32;;;;;;;16.90;8.60;;;;;;;19.70;100.00;99454.56;106337;1253;68550;-74
2023/06/09 04:13:59;;;;;;;11.80;8.30;;;;;;;19.97;100.00;99451.92;106213;1250;72408;-72
2023/06/09 04:16:26;;;;;;;18.10;9.20;;;;;;;19.85;100.00;99457.15;106111;1253;61953;-72
2023/06/09 04:18:54;;;;;;;10.30;8.40;;;;;;;19.98;100.00;99456.49;106381;1248;61313;-71
2023/06/09 04:21:21;;;;;;;9.60;8.10;;;;;;;19.99;100.00;99458.65;106044;1253;74645;-70
2023/06/09 04:23:48;;;;;;;10.90;8.60;;;;;;;19.89;100.00;99452.41;106069;1250;67186;-74
2023/06/09 04:26:16;;;;;;;11.70;9.70;;;;;;;19.84;100.00;99452.95;106076;1252;72279;-70
2023/06/09 04:28:44;;;;;;;13.70;8.60;;;;;;;20.04;100.00;99453.17;106211;1249;61659;-71
2023/06/09 04:31:12;;;;;;;12.30;8.70;;;;;;;20.05;100.00;99451.35;106245;1251;61332;-74
2023/06/09 04:33:39;;;;;;;9.60;8.50;;;;;;;20.08;100.00;99453.83;105863;1258;74675;-72
2023/06/09 04:36:06;;;;;;;10.90;7.80;;;;;;;20.48;100.00;99455.17;106115;1252;67485;-71
2023/06/09 04:38:33;;;;;;;9.60;8.00;;;;;;;20.63;100.00;99457.23;105994;1254;72365;-78
2023/06/09 04:41:04;;;;;;;9.90;8.60;;;;;;;20.58;100.00;99458.42;106021;1252;61931;-75
2023/06/09 04:43:34;;;;;;;10.10;8.10;;;;;;;20.68;100.00;99456.98;106125;1248;62349;-77
2023/06/09 04:46:05;;;;;;;10.50;8.30;;;;;;;20.64;100.00;99463.36;106324;1248;73031;-71
2023/06/09 04:48:33;;;;;;;10.20;8.40;;;;;;;20.66;100.00;99462.05;106253;1248;68785;-71
2023/06/09 04:51:01;;;;;;;10.90;8.80;;;;;;;20.76;100.00;99463.25;106094;1254;72924;-72
2023/06/09 04:53:31;;;;;;;9.70;8.70;;;;;;;21.00;100.00;99459.53;106338;1248;61904;-72
2023/06/09 04:55:58;;;;;;;9.40;8.20;;;;;;;21.20;100.00;99462.16;106028;1254;61324;-72
2023/06/09 04:58:28;;;;;;;10.60;8.60;;;;;;;21.25;100.00;99464.30;105961;1258;74430;-74
2023/06/09 05:00:57;;;;;;;13.40;7.70;;;;;;;21.30;100.00;99460.59;106056;1250;68585;-72
2023/06/09 05:03:25;;;;;;;9.70;8.50;;;;;;;21.42;100.00;99461.09;105845;1257;72432;-71
2023/06/09 05:05:52;;;;;;;15.90;8.80;;;;;;;21.45;100.00;99462.84;106168;1252;61778;-72
2023/06/09 05:08:20;;;;;;;;;;;;;;;21.70;100.00;99462.93;106338;1253;61355;-71
2023/06/09 05:10:52;;;;;;;9.40;8.40;;;;;;;21.98;100.00;99467.60;106327;1253;74566;-71
2023/06/09 05:13:20;;;;;;;10.90;9.00;;;;;;;22.26;100.00;99469.73;106403;1253;69128;-72
2023/06/09 05:15:47;;;;;;;9.60;8.60;;;;;;;21.76;100.00;99469.09;106345;1251;72453;-72
2023/06/09 05:18:17;;;;;;;14.40;8.80;;;;;;;21.66;100.00;99462.86;106076;1249;61918;-71
2023/06/09 05:20:44;;;;;;;10.10;8.00;;;;;;;22.07;100.00;99463.83;106279;1253;62237;-73
2023/06/09 05:23:12;;;;;;;9.90;8.40;;;;;;;22.41;99.81;99458.62;106295;1253;74536;-72
2023/06/09 05:25:39;;;;;;;15.10;7.60;;;;;;;22.70;99.27;99463.64;106360;1253;69004;-73
2023/06/09 05:28:06;;;;;;;14.40;9.70;;;;;;;22.86;97.17;99468.59;106048;1254;72228;-73
2023/06/09 05:30:33;;;;;;;8.60;7.40;;;;;;;23.06;93.22;99467.03;106359;1249;61872;-73
2023/06/09 05:33:01;;;;;;;13.80;7.60;;;;;;;23.08;93.71;99465.84;106040;1251;62316;-73
2023/06/09 05:35:29;;;;;;;11.70;8.10;;;;;;;23.18;90.48;99464.06;106312;1250;73056;-72
2023/06/09 05:37:56;;;;;;;12.70;7.90;;;;;;;23.00;94.23;99464.61;106275;1254;68612;-74
2023/06/09 05:40:25;;;;;;;9.10;7.40;;;;;;;23.33;93.79;99467.77;106070;1257;71647;-73
2023/06/09 05:42:52;;;;;;;13.60;7.50;;;;;;;23.60;90.60;99471.77;106322;1250;62976;-73
2023/06/09 05:45:19;;;;;;;22.60;8.20;;;;;;;23.62;86.85;99472.08;106335;1254;61227;-74
2023/06/09 05:47:46;;;;;;;13.70;7.10;;;;;;;23.89;84.61;99473.01;106400;1254;74242;-73
2023/06/09 05:50:13;;;;;;;13.60;7.70;;;;;;;24.00;83.85;99470.22;106390;1254;68467;-74
2023/06/09 05:52:40;;;;;;;12.60;8.00;;;;;;;24.18;82.27;99467.31;106330;1248;72563;-73
2023/06/09 05:55:07;;;;;;;10.10;7.30;;;;;;;24.58;79.11;99469.17;106310;1254;61333;-72
2023/06/09 05:57:34;;;;;;;7.70;7.00;;;;;;;24.96;75.73;99468.38;106271;1252;62438;-72
2023/06/09 06:00:09;;;;;;;13.00;7.50;;;;;;;25.24;73.71;99475.63;106331;1254;74515;-71
2023/06/09 06:02:40;;;;;;;13.40;7.60;;;;;;;25.57;70.09;99477.86;106318;1254;68478;-73
2023/06/09 06:05:08;;;;;;;12.40;7.20;;;;;;;25.57;70.46;99481.38;106021;1255;72593;-72
2023/06/09 06:07:38;;;;;;;10.40;7.40;;;;;;;25.73;68.21;99485.45;106364;1254;61223;-75
2023/06/09 06:10:06;;;;;;;8.40;6.90;;;;;;;25.74;67.95;99487.93;106339;1253;61215;-72
2023/06/09 06:12:34;;;;;;;11.60;8.00;;;;;;;25.80;68.15;99487.27;106346;1253;74442;-79
2023/06/09 06:15:01;;;;;;;10.30;8.10;;;;;;;25.83;66.29;99486.50;106326;1252;68551;-72
2023/06/09 06:17:28;;;;;;;8.80;6.70;;;;;;;26.10;67.35;99487.83;106303;1254;72675;-72
2023/06/09 06:19:56;;;;;;;13.40;8.00;;;;;;;26.26;63.35;99486.73;106344;1254;61343;-72
2023/06/09 06:22:23;;;;;;;8.80;7.70;;;;;;;26.10;64.01;99490.31;106293;1250;61250;-73
2023/06/09 06:24:50;;;;;;;14.60;7.80;;;;;;;26.26;63.23;99490.75;106118;1254;74317;-72
2023/06/09 06:27:17;;;;;;;8.50;7.40;;;;;;;26.52;61.98;99492.65;106244;1254;67309;-73
2023/06/09 06:29:44;;;;;;;7.50;6.00;;;;;;;26.94;60.06;99494.17;106291;1253;72727;-73
2023/06/09 06:32:11;;;;;;;8.00;7.00;;;;;;;27.21;58.03;99493.65;106294;1248;61252;-70
2023/06/09 06:34:38;;;;;;;10.40;7.40;;;;;;;27.19;56.33;99492.81;106334;1253;61132;-73
2023/06/09 06:37:05;;;;;;;13.20;6.80;;;;;;;26.81;57.91;99493.45;106328;1253;74886;-72
2023/06/09 06:39:32;;;;;;;8.50;6.70;;;;;;;27.27;57.00;99496.73;106368;1253;68386;-73
2023/06/09 06:42:00;;;;;;;10.90;6.40;;;;;;;27.77;55.11;99501.52;106308;1253;72539;-73
2023/06/09 06:44:28;;;;;;;10.60;6.60;;;;;;;28.25;52.09;99506.63;106389;1253;61135;-74
2023/06/09 06:46:55;;;;;;;14.20;6.60;;;;;;;28.75;50.61;99505.69;106366;1254;61217;-75
2023/06/09 06:49:21;;;;;;;8.10;5.60;;;;;;;28.99;50.03;99505.63;106312;1253;74266;-74
2023/06/09 06:51:48;;;;;;;6.60;5.60;;;;;;;29.26;48.76;99510.83;106327;1248;68568;-75
2023/06/09 06:54:16;;;;;;;14.30;7.00;;;;;;;29.40;47.26;99511.02;106305;1248;72312;-75
2023/06/09 06:56:43;;;;;;;13.10;5.80;;;;;;;29.46;47.11;99507.66;106315;1253;61426;-74
2023/06/09 06:59:09;;;;;;;10.30;6.10;;;;;;;29.40;46.36;99509.35;106328;1254;62497;-72
2023/06/09 07:01:38;;;;;;;9.60;5.70;;;;;;;28.89;46.96;99503.40;106341;1253;74525;-73
2023/06/09 07:04:06;;;;;;;8.70;6.30;;;;;;;28.67;47.74;99506.70;106374;1254;68660;-73
2023/06/09 07:06:33;;;;;;;8.80;6.40;;;;;;;28.99;47.53;99502.71;106308;1254;72342;-73
2023/06/09 07:09:00;;;;;;;10.80;5.80;;;;;;;29.16;47.70;99503.13;106342;1248;61342;-76
2023/06/09 07:11:32;;;;;;;11.40;5.70;;;;;;;29.21;46.82;99504.36;106350;1249;61509;-73
2023/06/09 07:13:59;;;;;;;8.00;6.30;;;;;;;29.10;47.25;99503.14;106406;1251;74431;-76
2023/06/09 07:16:26;;;;;;;7.40;6.10;;;;;;;29.38;46.04;99502.94;106320;1248;68643;-73
2023/06/09 07:18:53;;;;;;;6.20;5.60;;;;;;;29.69;45.82;99503.99;106154;1254;72620;-71
2023/06/09 07:21:20;;;;;;;7.00;5.80;;;;;;;29.78;44.82;99504.15;106325;1248;61181;-75
2023/06/09 07:23:46;;;;;;;6.70;6.00;;;;;;;30.31;43.48;99505.09;106365;1252;62334;-75
2023/06/09 07:26:13;;;;;;;10.40;6.00;;;;;;;30.70;42.25;99502.27;106370;1251;74529;-73
2023/06/09 07:28:40;;;;;;;10.60;6.10;;;;;;;30.80;42.26;99502.38;106327;1248;68560;-74
2023/06/09 07:31:07;;;;;;;10.00;6.60;;;;;;;30.85;41.57;99503.67;106323;1248;72556;-75
2023/06/09 07:33:35;;;;;;;30.90;6.40;;;;;;;30.89;41.65;99503.84;106211;1254;61393;-77
2023/06/09 07:38:26;;;;;;;14.70;5.20;;;;;;;29.70;43.42;99493.82;102619;1297;615089;-76
2023/06/09 07:40:54;;;;;;;11.50;5.90;;;;;;;30.66;40.90;99497.34;104879;1267;59268;-75
2023/06/09 07:43:22;;;;;;;11.50;5.40;;;;;;;30.93;40.67;99495.62;104817;1268;60567;-79
2023/06/09 07:45:48;;;;;;;;;;;;;;;31.35;39.79;99500.98;104912;1269;72049;-75
2023/06/09 07:48:15;;;;;;;9.10;5.60;;;;;;;31.17;37.90;99499.21;104814;1269;68400;-73
2023/06/09 07:50:42;;;;;;;7.30;5.10;;;;;;;30.77;37.38;99500.86;104765;1265;134821;-74
2023/06/09 07:53:27;;;;;;;5.60;4.60;;;;;;;30.91;37.33;99500.52;105124;1265;60153;-74
2023/06/09 07:55:54;;;;;;;10.30;5.20;;;;;;;30.83;37.72;99498.98;105108;1265;60196;-76
2023/06/09 07:58:21;;;;;;;;;;;;;;;30.77;38.16;99503.16;105095;1265;72010;-75
2023/06/09 08:00:50;;;;;;;4.30;3.70;;;;;;;31.08;36.77;99503.56;105081;1268;68472;-74
2023/06/09 08:03:17;;;;;;;11.60;3.80;;;;;;;30.85;35.21;99509.61;105119;1268;72626;-74
2023/06/09 08:05:45;;;;;;;;;;;;;;;30.67;34.52;99508.81;105119;1265;60044;-75
2023/06/09 08:08:11;;;;;;;8.20;4.10;;;;;;;30.93;34.25;99507.64;104910;1268;59821;-74
2023/06/09 08:10:38;;;;;;;7.50;4.00;;;;;;;30.72;33.59;99508.12;104918;1272;72886;-75
2023/06/09 08:13:05;;;;;;;9.30;3.60;;;;;;;30.94;33.62;99507.89;104904;1265;68581;-76
2023/06/09 08:15:33;;;;;;;6.30;3.90;;;;;;;30.66;33.92;99503.35;105384;1257;72845;-74
2023/06/09 08:17:59;;;;;;;11.00;4.00;;;;;;;30.83;34.14;99501.83;105680;1259;60498;-74
2023/06/09 08:20:27;;;;;;;;;;;;;;;31.19;33.44;99504.27;105737;1257;60122;-76
2023/06/09 08:22:53;;;;;;;8.80;4.10;;;;;;;31.30;33.65;99500.65;105677;1260;72902;-73
2023/06/09 08:25:21;;;;;;;5.30;3.80;;;;;;;31.56;33.66;99501.48;105672;1259;68926;-76
2023/06/09 08:27:48;;;;;;;4.70;3.70;;;;;;;31.51;32.96;99502.35;105743;1261;72568;-76
2023/06/09 08:30:14;;;;;;;7.60;4.40;;;;;;;31.52;32.79;99500.21;105798;1259;60290;-76
2023/06/09 08:32:41;;;;;;;;;;;;;;;31.41;32.42;99496.23;105838;1257;59857;-77
2023/06/09 08:35:08;;;;;;;9.30;4.20;;;;;;;31.66;32.56;99495.44;105766;1260;71459;-79
2023/06/09 08:37:36;;;;;;;6.90;3.90;;;;;;;31.72;31.82;99491.40;105771;1258;68656;-76
2023/06/09 08:40:05;;;;;;;5.80;3.20;;;;;;;31.64;31.35;99491.40;105633;1259;72935;-75
2023/06/09 08:42:35;;;;;;;7.90;2.90;;;;;;;31.99;30.44;99491.12;105474;1259;59636;-77
2023/06/09 08:45:05;;;;;;;12.80;4.50;;;;;;;31.73;28.21;99495.27;105500;1257;60199;-77
2023/06/09 08:47:35;;;;;;;8.00;3.80;;;;;;;31.66;28.02;99495.45;105796;1261;72838;-78
2023/06/09 08:50:04;;;;;;;8.30;3.30;;;;;;;31.82;27.39;99495.02;105406;1260;59854;-75
2023/06/09 08:52:32;;;;;;;5.90;3.30;;;;;;;31.75;27.84;99494.88;105776;1262;72954;-83
2023/06/09 08:54:59;;;;;;;9.80;3.40;;;;;;;31.75;28.03;99492.75;107104;1259;59623;-78
2023/06/09 08:57:26;;;;;;;;;;;;;;;31.60;28.44;99493.15;105772;1254;60084;-79
2023/06/09 08:59:53;;;;;;;7.50;3.30;;;;;;;31.82;28.35;99490.98;105981;1254;72150;-76
2023/06/09 09:02:19;;;;;;;8.40;3.00;;;;;;;32.13;28.20;99491.10;105788;1253;68638;-73
2023/06/09 09:04:46;;;;;;;12.60;3.50;;;;;;;32.26;27.27;99488.91;105969;1253;63778;-78
2023/06/09 09:07:13;;;;;;;4.20;2.40;;;;;;;32.50;26.78;99493.27;105963;1253;59811;-78
2023/06/09 09:09:41;;;;;;;;;;;;;;;32.58;25.54;99495.62;106007;1253;60173;-76
2023/06/09 09:12:12;;;;;;;5.60;3.00;;;;;;;32.75;25.56;99493.71;105991;1258;64351;-73
2023/06/09 09:14:43;;;;;;;4.20;2.70;;;;;;;32.96;25.31;99493.42;106136;1257;59629;-73
2023/06/09 09:17:10;;;;;;;7.30;3.10;;;;;;;32.77;25.25;99494.33;106014;1253;63824;-76
2023/06/09 09:19:42;;;;;;;4.40;2.90;;;;;;;32.80;25.55;99494.00;106043;1257;59530;-79
2023/06/09 09:22:10;;;;;;;4.80;2.90;;;;;;;32.57;26.25;99490.88;106191;1253;59667;-75
2023/06/09 09:24:43;;;;;;;4.90;2.80;;;;;;;32.46;26.38;99489.00;106170;1259;64317;-77
2023/06/09 09:29:39;;;;;;;8.30;3.80;;;;;;;31.41;27.69;99482.33;103511;1287;616827;-75
2023/06/09 09:32:06;;;;;;;4.70;3.20;;;;;;;32.09;27.67;99487.77;105094;1267;60286;-73
2023/06/09 09:34:33;;;;;;;9.20;3.30;;;;;;;32.19;27.30;99486.31;105075;1267;60306;-76
2023/06/09 09:37:01;;;;;;;4.30;2.90;;;;;;;32.26;27.20;99483.45;105322;1269;72616;-77
2023/06/09 09:39:28;;;;;;;7.80;3.20;;;;;;;32.24;26.74;99482.17;105115;1264;68587;-76
2023/06/09 09:42:08;;;;;;;5.50;3.30;;;;;;;32.51;26.28;99478.34;105303;1265;146796;-75
2023/06/09 09:44:39;;;;;;;4.70;3.70;;;;;;;33.18;25.58;99477.15;105475;1263;59747;-76
2023/06/09 09:47:14;;;;;;;5.20;3.20;;;;;;;33.49;25.46;99476.29;105250;1262;59393;-75
2023/06/09 09:49:48;;;;;;;10.20;3.00;;;;;;;33.58;25.56;99474.39;106117;1257;62281;-80
2023/06/09 09:52:23;;;;;;;14.40;3.80;;;;;;;33.86;25.36;99477.70;105773;1260;59869;-81
2023/06/09 09:54:52;;;;;;;6.80;3.20;;;;;;;33.02;25.62;99466.66;105918;1258;62664;-82
2023/06/09 09:57:19;;;;;;;5.60;2.80;;;;;;;32.28;26.70;99468.83;105863;1257;59649;-75
2023/06/09 09:59:46;;;;;;;10.20;3.40;;;;;;;31.64;27.28;99464.85;105832;1257;59616;-73
2023/06/09 10:02:15;;;;;;;12.60;3.40;;;;;;;31.81;27.45;99464.66;105725;1262;72853;-74
2023/06/09 10:04:42;;;;;;;5.90;3.00;;;;;;;31.90;27.64;99461.16;105815;1261;67520;-77
2023/06/09 10:07:09;;;;;;;5.00;3.70;;;;;;;32.32;27.11;99461.27;105569;1263;72645;-75
2023/06/09 10:09:36;;;;;;;7.80;3.30;;;;;;;32.76;26.49;99457.58;105609;1258;60078;-75
2023/06/09 10:12:03;;;;;;;5.50;3.30;;;;;;;33.38;26.75;99459.59;105575;1256;60208;-75
2023/06/09 10:14:30;;;;;;;6.90;3.00;;;;;;;33.88;26.38;99460.26;105765;1257;64369;-74
2023/06/09 10:16:57;;;;;;;13.50;3.30;;;;;;;33.86;25.84;99460.59;105769;1259;60194;-74
2023/06/09 10:19:24;;;;;;;8.00;3.50;;;;;;;33.27;26.13;99457.86;105737;1258;63786;-74
2023/06/09 10:21:52;;;;;;;11.10;3.70;;;;;;;32.98;26.63;99454.20;105807;1262;59688;-73
2023/06/09 10:24:18;;;;;;;11.40;3.90;;;;;;;32.49;26.67;99453.75;105822;1262;59654;-77
2023/06/09 10:26:47;;;;;;;9.30;3.90;;;;;;;32.78;26.62;99450.58;105789;1257;72911;-78
2023/06/09 10:29:15;;;;;;;7.70;2.80;;;;;;;31.71;27.58;99441.85;105862;1257;68930;-77
2023/06/09 10:31:44;;;;;;;4.20;3.20;;;;;;;31.83;26.92;99439.06;105589;1258;63898;-76
2023/06/09 10:34:11;;;;;;;4.30;2.80;;;;;;;32.05;26.67;99429.89;105869;1260;59650;-74
2023/06/09 10:36:38;;;;;;;3.60;3.10;;;;;;;32.16;26.43;99432.95;105561;1257;59789;-75
2023/06/09 10:39:18;;;;;;;6.20;2.90;;;;;;;32.01;26.98;99427.36;105759;1257;72902;-75
2023/06/09 10:42:18;;;;;;;8.90;3.30;;;;;;;32.25;27.12;99426.80;105814;1257;60025;-74
2023/06/09 10:44:45;;;;;;;4.00;2.80;;;;;;;31.84;26.73;99421.85;105812;1258;72787;-74
2023/06/09 10:47:23;;;;;;;7.90;2.80;;;;;;;31.45;27.46;99424.12;105838;1257;59884;-75
2023/06/09 10:49:50;;;;;;;6.10;3.70;;;;;;;30.98;27.53;99426.51;105761;1263;59677;-78
2023/06/09 10:52:36;;;;;;;7.50;3.50;;;;;;;30.68;27.81;99422.95;105891;1260;72901;-78
2023/06/09 10:55:11;;;;;;;5.30;3.20;;;;;;;30.52;28.66;99413.27;105553;1262;69236;-77
2023/06/09 10:57:41;;;;;;;4.80;3.30;;;;;;;30.63;27.76;99412.34;105932;1253;72383;-76
2023/06/09 11:00:11;;;;;;;7.40;3.10;;;;;;;31.14;27.40;99411.53;106030;1253;60148;-80
2023/06/09 11:02:43;;;;;;;6.90;3.30;;;;;;;31.71;26.77;99410.70;106065;1253;59533;-76
2023/06/09 11:05:10;;;;;;;3.10;2.80;;;;;;;31.92;26.34;99413.59;105985;1258;72935;-78
2023/06/09 11:07:50;;;;;;;4.30;2.50;;;;;;;32.38;26.40;99413.09;106082;1253;68480;-74
2023/06/09 11:10:19;;;;;;;4.00;2.50;;;;;;;32.52;25.73;99413.35;106082;1257;72576;-77
2023/06/09 11:12:47;;;;;;;6.30;3.20;;;;;;;32.44;25.51;99412.27;105973;1253;59538;-77
2023/06/09 11:15:15;;;;;;;4.60;2.80;;;;;;;31.96;26.05;99411.90;106108;1253;59620;-78
2023/06/09 11:17:50;;;;;;;11.80;3.70;;;;;;;31.56;26.53;99408.59;106075;1257;73034;-74
2023/06/09 11:20:18;;;;;;;6.60;3.00;;;;;;;31.42;27.12;99407.73;105835;1253;59780;-83
2023/06/09 11:22:58;;;;;;;9.20;3.20;;;;;;;31.39;27.29;99402.91;106750;1253;72498;-80
2023/06/09 11:25:26;;;;;;;7.80;3.40;;;;;;;31.06;27.61;99399.59;106017;1258;59651;-79
2023/06/09 11:27:59;;;;;;;6.60;3.10;;;;;;;31.03;27.91;99397.29;105913;1253;60080;-78
2023/06/09 11:30:29;;;;;;;5.50;3.00;;;;;;;30.85;27.47;99393.71;106072;1257;72818;-76